createdAt,value
2019-04-22T17:26:20.761Z,6.67
2019-04-22T17:33:57.087Z,5.97
2019-04-22T17:38:37.178Z,1.00
2019-04-22T17:41:11.535Z,1.67
2019-04-22T17:43:54.260Z,0.90
2019-04-22T17:46:24.701Z,1.10
2019-04-22T17:49:11.708Z,0.90
2019-04-22T17:51:48.740Z,0.90
2019-04-22T17:54:06.773Z,1.57
2019-04-22T17:56:43.542Z,0.90
2019-04-22T17:59:18.650Z,2.60
2019-04-22T18:01:43.767Z,0.90
2019-04-22T18:04:00.791Z,0.93
2019-04-22T18:06:54.609Z,0.90
2019-04-22T18:09:19.331Z,0.90
2019-04-22T18:11:59.083Z,1.23
2019-04-22T18:17:05.763Z,0.93
2019-04-22T18:19:27.756Z,1.30
2019-04-22T18:21:58.750Z,0.90
2019-04-22T18:24:21.997Z,0.90
2019-04-22T18:27:15.252Z,0.90
2019-04-22T18:29:34.437Z,0.90
2019-04-22T18:31:58.170Z,0.90
2019-04-22T18:34:34.254Z,0.90
2019-04-22T18:37:05.785Z,0.90
2019-04-22T18:39:47.723Z,0.90
2019-04-22T18:42:09.292Z,0.90
2019-04-22T18:44:47.300Z,0.90
2019-04-22T18:47:14.705Z,0.90
2019-04-22T18:49:46.000Z,0.90
2019-04-22T18:55:07.154Z,0.90
2019-04-22T18:58:02.843Z,0.90
2019-04-22T19:00:18.628Z,0.90
2019-04-22T19:02:56.910Z,0.90
2019-04-22T19:05:40.065Z,0.90
2019-04-22T19:10:57.707Z,0.90
2019-04-22T19:16:09.830Z,0.90
2019-04-22T19:18:31.977Z,2.03
2019-04-22T19:23:30.208Z,1.10
2019-04-22T19:26:00.949Z,0.90
2019-04-22T19:28:34.394Z,0.90
2019-04-22T19:31:09.415Z,0.90
2019-04-22T19:33:38.202Z,1.00
2019-04-22T19:36:11.643Z,0.90
2019-04-22T19:38:27.638Z,0.90
2019-04-22T19:41:14.567Z,0.90
2019-04-22T19:43:38.545Z,0.90
2019-04-22T19:46:09.291Z,1.27
2019-04-22T19:48:50.266Z,0.90
2019-04-22T19:51:20.982Z,0.90
2019-04-22T19:53:47.031Z,0.90
2019-04-22T19:56:11.593Z,0.90
2019-04-22T19:58:46.429Z,0.90
2019-04-22T20:01:39.638Z,0.90
2019-04-22T20:04:26.593Z,0.90
2019-04-22T20:06:47.753Z,1.27
2019-04-22T20:09:26.851Z,0.90
2019-04-22T20:11:51.840Z,0.90
2019-04-22T20:14:28.073Z,0.90
2019-04-22T20:16:51.520Z,0.90
2019-04-22T20:19:31.933Z,0.90
2019-04-22T20:22:03.128Z,0.90
2019-04-22T20:24:18.854Z,0.90
2019-04-22T20:27:05.657Z,0.93
2019-04-22T20:29:55.090Z,1.20
2019-04-22T20:32:06.701Z,0.90
2019-04-22T20:34:43.971Z,0.90
2019-04-22T20:37:16.586Z,0.90
2019-04-22T20:39:44.125Z,0.90
2019-04-22T20:42:29.804Z,0.90
2019-04-22T20:44:46.040Z,1.00
2019-04-22T20:47:15.842Z,1.00
2019-04-22T20:49:49.845Z,0.90
2019-04-22T20:52:27.822Z,0.90
2019-04-22T20:54:49.491Z,0.90
2019-04-22T20:57:26.292Z,0.90
2019-04-22T20:59:54.207Z,0.90
2019-04-22T21:02:17.918Z,1.60
2019-04-22T21:04:47.743Z,0.90
2019-04-22T21:07:23.799Z,0.90
2019-04-22T21:09:58.086Z,2.50
2019-04-22T21:12:22.449Z,0.90
2019-04-22T21:15:06.765Z,0.97
2019-04-22T21:17:34.800Z,0.90
2019-04-22T21:20:14.274Z,0.90
2019-04-22T21:22:41.696Z,1.20
2019-04-22T21:25:06.191Z,0.90
2019-04-22T21:27:45.056Z,0.90
2019-04-22T21:30:04.719Z,0.90
2019-04-22T21:32:39.195Z,0.90
2019-04-22T21:35:23.153Z,1.00
2019-04-22T21:37:53.092Z,0.90
2019-04-22T21:40:21.707Z,0.90
2019-04-22T21:42:58.311Z,0.90
2019-04-22T21:45:14.956Z,0.90
2019-04-22T21:48:04.976Z,0.90
2019-04-22T21:50:41.823Z,0.90
2019-04-22T21:53:00.837Z,0.90
2019-04-22T21:55:36.061Z,0.93
2019-04-22T21:58:12.258Z,1.47
2019-04-22T22:00:57.870Z,0.90
2019-04-22T22:03:24.876Z,0.90
2019-04-22T22:05:44.319Z,2.80
2019-04-22T22:08:30.141Z,1.40
2019-04-22T22:11:14.200Z,0.90
2019-04-22T22:13:45.387Z,0.90
2019-04-22T22:16:14.874Z,0.90
2019-04-22T22:18:52.792Z,0.90
2019-04-22T22:21:47.746Z,0.90
2019-04-22T22:24:18.826Z,1.10
2019-04-22T22:26:44.861Z,0.90
2019-04-22T22:29:24.608Z,0.90
2019-04-22T22:31:47.333Z,0.90
2019-04-22T22:34:21.341Z,0.90
2019-04-22T22:36:45.198Z,0.90
2019-04-22T22:39:16.427Z,0.90
2019-04-22T22:41:31.928Z,0.90
2019-04-22T22:44:10.526Z,0.90
2019-04-22T22:46:43.737Z,0.90
2019-04-22T22:49:48.232Z,0.90
2019-04-22T22:52:40.909Z,0.97
2019-04-22T22:54:46.355Z,0.90
2019-04-22T22:57:28.803Z,1.20
2019-04-22T22:59:50.135Z,2.40
2019-04-22T23:02:22.747Z,0.90
2019-04-22T23:04:57.734Z,0.90
2019-04-22T23:07:32.271Z,1.00
2019-04-22T23:09:53.756Z,1.00
2019-04-22T23:15:00.459Z,1.10
2019-04-22T23:17:18.191Z,0.90
2019-04-22T23:19:46.620Z,1.73
2019-04-22T23:22:21.978Z,0.90
2019-04-22T23:25:07.760Z,0.90
2019-04-22T23:27:42.119Z,0.90
2019-04-22T23:30:17.013Z,0.90
2019-04-22T23:32:58.126Z,0.90
2019-04-22T23:35:37.187Z,0.90
2019-04-22T23:38:11.996Z,0.90
2019-04-22T23:40:42.782Z,1.00
2019-04-22T23:43:19.504Z,0.90
2019-04-22T23:45:51.962Z,0.90
2019-04-22T23:48:17.989Z,1.10
2019-04-22T23:50:55.764Z,0.90
2019-04-22T23:56:04.684Z,0.90
